Aviation Digital Data Service (ADDS)

Output produced by METARs form (1404 UTC 19 January 2019)
found at http://www.aviationweather.gov/metar/data/
 
METAR text: KSWF 191245Z 00000KT 20SM FEW040 M06/M07 A3022
Conditions at: KSWF (NEWBURGH/STEWART, NY, US) observed 1245 UTC 19 January 2019
Temperature: -6.0°C (21°F)
Dewpoint: -7.0°C (19°F) [RH = 93%]
Pressure (altimeter): 30.22 inches Hg (1023.5 mb)
Winds: calm
Visibility: 20 miles (32 km)
Ceiling: at least 12,000 feet AGL
Clouds: few clouds at 4000 feet AGL
Weather: no significant weather observed at this time

METAR text: KSWF 191145Z 00000KT 10SM FEW040 M07/M07 A3021
Conditions at: KSWF (NEWBURGH/STEWART, NY, US) observed 1145 UTC 19 January 2019
Temperature: -7.0°C (19°F)
Dewpoint: -7.0°C (19°F) [RH = 100%]
Pressure (altimeter): 30.21 inches Hg (1023.1 mb)
Winds: calm
Visibility: 10 or more miles (16+ km)
Ceiling: at least 12,000 feet AGL
Clouds: few clouds at 4000 feet AGL
Weather: no significant weather observed at this time

METAR text: KSWF 191045Z 00000KT 10SM FEW040 M05/M06 A3021
Conditions at: KSWF (NEWBURGH/STEWART, NY, US) observed 1045 UTC 19 January 2019
Temperature: -5.0°C (23°F)
Dewpoint: -6.0°C (21°F) [RH = 93%]
Pressure (altimeter): 30.21 inches Hg (1023.1 mb)
Winds: calm
Visibility: 10 or more miles (16+ km)
Ceiling: at least 12,000 feet AGL
Clouds: few clouds at 4000 feet AGL
Weather: no significant weather observed at this time

METAR text: KSWF 190945Z 27005KT 10SM FEW045 M06/M07 A3018
Conditions at: KSWF (NEWBURGH/STEWART, NY, US) observed 0945 UTC 19 January 2019
Temperature: -6.0°C (21°F)
Dewpoint: -7.0°C (19°F) [RH = 93%]
Pressure (altimeter): 30.18 inches Hg (1022.1 mb)
Winds: from the W (270 degrees) at 6 MPH (5 knots; 2.6 m/s)
Visibility: 10 or more miles (16+ km)
Ceiling: at least 12,000 feet AGL
Clouds: few clouds at 4500 feet AGL
Weather: no significant weather observed at this time

METAR text: KSWF 190845Z 27006KT 7SM FEW045 M04/M06 A3019
Conditions at: KSWF (NEWBURGH/STEWART, NY, US) observed 0845 UTC 19 January 2019
Temperature: -4.0°C (25°F)
Dewpoint: -6.0°C (21°F) [RH = 86%]
Pressure (altimeter): 30.19 inches Hg (1022.4 mb)
Winds: from the W (270 degrees) at 7 MPH (6 knots; 3.1 m/s)
Visibility: 7 miles (11 km)
Ceiling: at least 12,000 feet AGL
Clouds: few clouds at 4500 feet AGL
Weather: no significant weather observed at this time

METAR text: KSWF 190745Z 27005KT 10SM BKN050 M05/M06 A3019
Conditions at: KSWF (NEWBURGH/STEWART, NY, US) observed 0745 UTC 19 January 2019
Temperature: -5.0°C (23°F)
Dewpoint: -6.0°C (21°F) [RH = 93%]
Pressure (altimeter): 30.19 inches Hg (1022.4 mb)
Winds: from the W (270 degrees) at 6 MPH (5 knots; 2.6 m/s)
Visibility: 10 or more miles (16+ km)
Ceiling: 5000 feet AGL
Clouds: broken clouds at 5000 feet AGL
Weather: no significant weather observed at this time

METAR text: KSWF 190645Z 28007KT 10SM BKN050 M03/M05 A3017
Conditions at: KSWF (NEWBURGH/STEWART, NY, US) observed 0645 UTC 19 January 2019
Temperature: -3.0°C (27°F)
Dewpoint: -5.0°C (23°F) [RH = 86%]
Pressure (altimeter): 30.17 inches Hg (1021.8 mb)
Winds: from the W (280 degrees) at 8 MPH (7 knots; 3.6 m/s)
Visibility: 10 or more miles (16+ km)
Ceiling: 5000 feet AGL
Clouds: broken clouds at 5000 feet AGL
Weather: no significant weather observed at this time

METAR text: KSWF 190545Z 270KT 7SM BKN040 M03/M05 A3016
Conditions at: KSWF (NEWBURGH/STEWART, NY, US) observed 0545 UTC 19 January 2019
Temperature: -3.0°C (27°F)
Dewpoint: -5.0°C (23°F) [RH = 86%]
Pressure (altimeter): 30.16 inches Hg (1021.4 mb)
Winds: missing
Visibility: 7 miles (11 km)
Ceiling: 4000 feet AGL
Clouds: broken clouds at 4000 feet AGL
Weather: no significant weather observed at this time

METAR text: KSWF 190445Z 30005KT 7SM BKN040 M03/M05 A3014
Conditions at: KSWF (NEWBURGH/STEWART, NY, US) observed 0445 UTC 19 January 2019
Temperature: -3.0°C (27°F)
Dewpoint: -5.0°C (23°F) [RH = 86%]
Pressure (altimeter): 30.14 inches Hg (1020.7 mb)
Winds: from the WNW (300 degrees) at 6 MPH (5 knots; 2.6 m/s)
Visibility: 7 miles (11 km)
Ceiling: 4000 feet AGL
Clouds: broken clouds at 4000 feet AGL
Weather: no significant weather observed at this time

METAR text: KSWF 190345Z 31010KT 7SM BKN040 01/M04 A3015
Conditions at: KSWF (NEWBURGH/STEWART, NY, US) observed 0345 UTC 19 January 2019
Temperature: 1.0°C (34°F)
Dewpoint: -4.0°C (25°F) [RH = 69%]
Pressure (altimeter): 30.15 inches Hg (1021.1 mb)
Winds: from the NW (310 degrees) at 12 MPH (10 knots; 5.1 m/s)
Visibility: 7 miles (11 km)
Ceiling: 4000 feet AGL
Clouds: broken clouds at 4000 feet AGL
Weather: no significant weather observed at this time

METAR text: KSWF 190245Z 31010KT 7SM BKN040 01/M02 A3013
Conditions at: KSWF (NEWBURGH/STEWART, NY, US) observed 0245 UTC 19 January 2019
Temperature: 1.0°C (34°F)
Dewpoint: -2.0°C (28°F) [RH = 80%]
Pressure (altimeter): 30.13 inches Hg (1020.4 mb)
Winds: from the NW (310 degrees) at 12 MPH (10 knots; 5.1 m/s)
Visibility: 7 miles (11 km)
Ceiling: 4000 feet AGL
Clouds: broken clouds at 4000 feet AGL
Weather: no significant weather observed at this time

METAR text: KSWF 190145Z 31005KT 7SM BKN035 OVC045 00/M01 A3010
Conditions at: KSWF (NEWBURGH/STEWART, NY, US) observed 0145 UTC 19 January 2019
Temperature: 0.0°C (32°F)
Dewpoint: -1.0°C (30°F) [RH = 93%]
Pressure (altimeter): 30.10 inches Hg (1019.4 mb)
Winds: from the NW (310 degrees) at 6 MPH (5 knots; 2.6 m/s)
Visibility: 7 miles (11 km)
Ceiling: 3500 feet AGL
Clouds: broken clouds at 3500 feet AGL
overcast cloud deck at 4500 feet AGL
Weather: no significant weather observed at this time

METAR text: KSWF 190045Z 26005KT 7SM OVC028 00/00 A3010
Conditions at: KSWF (NEWBURGH/STEWART, NY, US) observed 0045 UTC 19 January 2019
Temperature: 0.0°C (32°F)
Dewpoint: 0.0°C (32°F) [RH = 100%]
Pressure (altimeter): 30.10 inches Hg (1019.4 mb)
Winds: from the W (260 degrees) at 6 MPH (5 knots; 2.6 m/s)
Visibility: 7 miles (11 km)
Ceiling: 2800 feet AGL
Clouds: overcast cloud deck at 2800 feet AGL
Weather: no significant weather observed at this time

METAR text: KSWF 182345Z 27005KT 7SM SCT030 BKN040 OVC055 00/M01 A3008
Conditions at: KSWF (NEWBURGH/STEWART, NY, US) observed 2345 UTC 18 January 2019
Temperature: 0.0°C (32°F)
Dewpoint: -1.0°C (30°F) [RH = 93%]
Pressure (altimeter): 30.08 inches Hg (1018.7 mb)
Winds: from the W (270 degrees) at 6 MPH (5 knots; 2.6 m/s)
Visibility: 7 miles (11 km)
Ceiling: 4000 feet AGL
Clouds: scattered clouds at 3000 feet AGL
broken clouds at 4000 feet AGL
overcast cloud deck at 5500 feet AGL
Weather: no significant weather observed at this time

METAR text: KSWF 182245Z 27005KT 7SM BKN050 00/M01 A3006
Conditions at: KSWF (NEWBURGH/STEWART, NY, US) observed 2245 UTC 18 January 2019
Temperature: 0.0°C (32°F)
Dewpoint: -1.0°C (30°F) [RH = 93%]
Pressure (altimeter): 30.06 inches Hg (1018.0 mb)
Winds: from the W (270 degrees) at 6 MPH (5 knots; 2.6 m/s)
Visibility: 7 miles (11 km)
Ceiling: 5000 feet AGL
Clouds: broken clouds at 5000 feet AGL
Weather: no significant weather observed at this time

METAR text: KSWF 182145Z 27006KT 7SM SCT015 BKN030 01/00 A3005
Conditions at: KSWF (NEWBURGH/STEWART, NY, US) observed 2145 UTC 18 January 2019
Temperature: 1.0°C (34°F)
Dewpoint: 0.0°C (32°F) [RH = 93%]
Pressure (altimeter): 30.05 inches Hg (1017.7 mb)
Winds: from the W (270 degrees) at 7 MPH (6 knots; 3.1 m/s)
Visibility: 7 miles (11 km)
Ceiling: 3000 feet AGL
Clouds: scattered clouds at 1500 feet AGL
broken clouds at 3000 feet AGL
Weather: no significant weather observed at this time

METAR text: KSWF 182045Z 27006KT 7SM OVC011 01/00 A3004
Conditions at: KSWF (NEWBURGH/STEWART, NY, US) observed 2045 UTC 18 January 2019
Temperature: 1.0°C (34°F)
Dewpoint: 0.0°C (32°F) [RH = 93%]
Pressure (altimeter): 30.04 inches Hg (1017.4 mb)
Winds: from the W (270 degrees) at 7 MPH (6 knots; 3.1 m/s)
Visibility: 7 miles (11 km)
Ceiling: 1100 feet AGL
Clouds: overcast cloud deck at 1100 feet AGL
Weather: no significant weather observed at this time

METAR text: KSWF 181945Z 23005KT 7SM OVC012 02/00 A3001
Conditions at: KSWF (NEWBURGH/STEWART, NY, US) observed 1945 UTC 18 January 2019
Temperature: 2.0°C (36°F)
Dewpoint: 0.0°C (32°F) [RH = 87%]
Pressure (altimeter): 30.01 inches Hg (1016.3 mb)
Winds: from the SW (230 degrees) at 6 MPH (5 knots; 2.6 m/s)
Visibility: 7 miles (11 km)
Ceiling: 1200 feet AGL
Clouds: overcast cloud deck at 1200 feet AGL
Weather: no significant weather observed at this time

METAR text: KSWF 181845Z 23005KT 7SM 0VC012 01/M01 A3003
Conditions at: KSWF (NEWBURGH/STEWART, NY, US) observed 1845 UTC 18 January 2019
Temperature: 1.0°C (34°F)
Dewpoint: -1.0°C (30°F) [RH = 86%]
Pressure (altimeter): 30.03 inches Hg (1017.0 mb)
Winds: from the SW (230 degrees) at 6 MPH (5 knots; 2.6 m/s)
Visibility: 7 miles (11 km)
Ceiling: unknown
Clouds: missing
Weather: no significant weather observed at this time

METAR text: KSWF 181745Z 00000KT 6SM -SHSN BR 0VC009 01/M01 A3004
Conditions at: KSWF (NEWBURGH/STEWART, NY, US) observed 1745 UTC 18 January 2019
Temperature: 1.0°C (34°F)
Dewpoint: -1.0°C (30°F) [RH = 86%]
Pressure (altimeter): 30.04 inches Hg (1017.4 mb)
Winds: calm
Visibility: 6 miles (10 km)
Ceiling: unknown
Clouds: missing
Weather: -SHSN BR  (light snow showers, mist)

METAR text: KSWF 181645Z 00000KT 6SM -SHSN BR 0VC008 00/M01 A3007
Conditions at: KSWF (NEWBURGH/STEWART, NY, US) observed 1645 UTC 18 January 2019
Temperature: 0.0°C (32°F)
Dewpoint: -1.0°C (30°F) [RH = 93%]
Pressure (altimeter): 30.07 inches Hg (1018.4 mb)
Winds: calm
Visibility: 6 miles (10 km)
Ceiling: unknown
Clouds: missing
Weather: -SHSN BR  (light snow showers, mist)

METAR text: KSWF 181545Z 00000KT 5SM BR OVC007 M02/M03 A3010
Conditions at: KSWF (NEWBURGH/STEWART, NY, US) observed 1545 UTC 18 January 2019
Temperature: -2.0°C (28°F)
Dewpoint: -3.0°C (27°F) [RH = 93%]
Pressure (altimeter): 30.10 inches Hg (1019.4 mb)
Winds: calm
Visibility: 5 miles ( 8 km)
Ceiling: 700 feet AGL
Clouds: overcast cloud deck at 700 feet AGL
Weather: BR  (mist)

METAR text: KSWF 181445Z 00000KT 5SM BR OVC007 M03/M04 A3010
Conditions at: KSWF (NEWBURGH/STEWART, NY, US) observed 1445 UTC 18 January 2019
Temperature: -3.0°C (27°F)
Dewpoint: -4.0°C (25°F) [RH = 93%]
Pressure (altimeter): 30.10 inches Hg (1019.4 mb)
Winds: calm
Visibility: 5 miles ( 8 km)
Ceiling: 700 feet AGL
Clouds: overcast cloud deck at 700 feet AGL
Weather: BR  (mist)

METAR text: KSWF 181345Z 00000KT BR OVC007 M04/M04 A3010
Conditions at: KSWF (NEWBURGH/STEWART, NY, US) observed 1345 UTC 18 January 2019
Temperature: -4.0°C (25°F)
Dewpoint: -4.0°C (25°F) [RH = 100%]
Pressure (altimeter): 30.10 inches Hg (1019.4 mb)
Winds: calm
Visibility: missing
Ceiling: 700 feet AGL
Clouds: overcast cloud deck at 700 feet AGL
Weather: BR  (mist)

METAR text: KSWF 181245Z 00000KT 5SM BR OVC007 M04/M05 A3009
Conditions at: KSWF (NEWBURGH/STEWART, NY, US) observed 1245 UTC 18 January 2019
Temperature: -4.0°C (25°F)
Dewpoint: -5.0°C (23°F) [RH = 93%]
Pressure (altimeter): 30.09 inches Hg (1019.0 mb)
Winds: calm
Visibility: 5 miles ( 8 km)
Ceiling: 700 feet AGL
Clouds: overcast cloud deck at 700 feet AGL
Weather: BR  (mist)

METAR text: KSWF 181145Z 00000KT 5SM BR OVC009 M05/M05 A3011
Conditions at: KSWF (NEWBURGH/STEWART, NY, US) observed 1145 UTC 18 January 2019
Temperature: -5.0°C (23°F)
Dewpoint: -5.0°C (23°F) [RH = 100%]
Pressure (altimeter): 30.11 inches Hg (1019.7 mb)
Winds: calm
Visibility: 5 miles ( 8 km)
Ceiling: 900 feet AGL
Clouds: overcast cloud deck at 900 feet AGL
Weather: BR  (mist)

METAR text: KSWF 181045Z 00000KT 6SM BR OVC007 M05/M05 A3010
Conditions at: KSWF (NEWBURGH/STEWART, NY, US) observed 1045 UTC 18 January 2019
Temperature: -5.0°C (23°F)
Dewpoint: -5.0°C (23°F) [RH = 100%]
Pressure (altimeter): 30.10 inches Hg (1019.4 mb)
Winds: calm
Visibility: 6 miles (10 km)
Ceiling: 700 feet AGL
Clouds: overcast cloud deck at 700 feet AGL
Weather: BR  (mist)

METAR text: KSWF 180945Z 00000KT 6SM BR OVC013 M05/M05 A3011
Conditions at: KSWF (NEWBURGH/STEWART, NY, US) observed 0945 UTC 18 January 2019
Temperature: -5.0°C (23°F)
Dewpoint: -5.0°C (23°F) [RH = 100%]
Pressure (altimeter): 30.11 inches Hg (1019.7 mb)
Winds: calm
Visibility: 6 miles (10 km)
Ceiling: 1300 feet AGL
Clouds: overcast cloud deck at 1300 feet AGL
Weather: BR  (mist)

METAR text: KSWF 180845Z 08005KT 2SM -SN BKN005 OVC010 M05/M05 A3014
Conditions at: KSWF (NEWBURGH/STEWART, NY, US) observed 0845 UTC 18 January 2019
Temperature: -5.0°C (23°F)
Dewpoint: -5.0°C (23°F) [RH = 100%]
Pressure (altimeter): 30.14 inches Hg (1020.7 mb)
Winds: from the E (80 degrees) at 6 MPH (5 knots; 2.6 m/s)
Visibility: 2.00 miles (3.22 km)
Ceiling: 500 feet AGL
Clouds: broken clouds at 500 feet AGL
overcast cloud deck at 1000 feet AGL
Weather: -SN  (light snow)

METAR text: KSWF 180745Z 11005KT 2SM -SN BKN005 OVC020 M05/M05 A3017
Conditions at: KSWF (NEWBURGH/STEWART, NY, US) observed 0745 UTC 18 January 2019
Temperature: -5.0°C (23°F)
Dewpoint: -5.0°C (23°F) [RH = 100%]
Pressure (altimeter): 30.17 inches Hg (1021.8 mb)
Winds: from the ESE (110 degrees) at 6 MPH (5 knots; 2.6 m/s)
Visibility: 2.00 miles (3.22 km)
Ceiling: 500 feet AGL
Clouds: broken clouds at 500 feet AGL
overcast cloud deck at 2000 feet AGL
Weather: -SN  (light snow)

METAR text: KSWF 180645Z 00000KT 2SM -SN OVC008 M05/M05 A3019
Conditions at: KSWF (NEWBURGH/STEWART, NY, US) observed 0645 UTC 18 January 2019
Temperature: -5.0°C (23°F)
Dewpoint: -5.0°C (23°F) [RH = 100%]
Pressure (altimeter): 30.19 inches Hg (1022.4 mb)
Winds: calm
Visibility: 2.00 miles (3.22 km)
Ceiling: 800 feet AGL
Clouds: overcast cloud deck at 800 feet AGL
Weather: -SN  (light snow)

METAR text: KSWF 180545Z VRB04KT 2SM -SN OVC008 M05/M06 A3020
Conditions at: KSWF (NEWBURGH/STEWART, NY, US) observed 0545 UTC 18 January 2019
Temperature: -5.0°C (23°F)
Dewpoint: -6.0°C (21°F) [RH = 93%]
Pressure (altimeter): 30.20 inches Hg (1022.8 mb)
Winds: variable direction winds at 5 MPH (4 knots; 2.1 m/s)
Visibility: 2.00 miles (3.22 km)
Ceiling: 800 feet AGL
Clouds: overcast cloud deck at 800 feet AGL
Weather: -SN  (light snow)

METAR text: KSWF 180445Z VRB04KT 3SM -SN SCT004 OVC030 M03/M08 A3023
Conditions at: KSWF (NEWBURGH/STEWART, NY, US) observed 0445 UTC 18 January 2019
Temperature: -3.0°C (27°F)
Dewpoint: -8.0°C (18°F) [RH = 68%]
Pressure (altimeter): 30.23 inches Hg (1023.8 mb)
Winds: variable direction winds at 5 MPH (4 knots; 2.1 m/s)
Visibility: 3 miles ( 5 km)
Ceiling: 3000 feet AGL
Clouds: scattered clouds at 400 feet AGL
overcast cloud deck at 3000 feet AGL
Weather: -SN  (light snow)

METAR text: KSWF 180345Z 00000KT 10SM SCT030 BKN050 M03/M11 A3024
Conditions at: KSWF (NEWBURGH/STEWART, NY, US) observed 0345 UTC 18 January 2019
Temperature: -3.0°C (27°F)
Dewpoint: -11.0°C (12°F) [RH = 54%]
Pressure (altimeter): 30.24 inches Hg (1024.1 mb)
Winds: calm
Visibility: 10 or more miles (16+ km)
Ceiling: 5000 feet AGL
Clouds: scattered clouds at 3000 feet AGL
broken clouds at 5000 feet AGL
Weather: no significant weather observed at this time

METAR text: KSWF 180245Z 00000KT 10SM BKN120 M04/M11 A3024
Conditions at: KSWF (NEWBURGH/STEWART, NY, US) observed 0245 UTC 18 January 2019
Temperature: -4.0°C (25°F)
Dewpoint: -11.0°C (12°F) [RH = 58%]
Pressure (altimeter): 30.24 inches Hg (1024.1 mb)
Winds: calm
Visibility: 10 or more miles (16+ km)
Ceiling: 12000 feet AGL
Clouds: broken clouds at 12000 feet AGL
Weather: no significant weather observed at this time

Forecast for: KSWF (NEWBURGH/STEWART, NY, US)
Text: KSWF 191151Z 1912/2018 02004KT P6SM FEW050 BKN250
Forecast period: 1200 to 1400 UTC 19 January 2019
Forecast type: FROM: standard forecast or significant change
Winds: from the NNE (20 degrees) at 5 MPH (4 knots; 2.1 m/s)
Visibility: 6 or more miles 10+ km)
Ceiling: 25000 feet AGL
Clouds: few clouds at 5000 feet AGL
broken clouds at 25000 feet AGL
Weather: no significant weather forecast for this period
Text: FM191400 04005KT P6SM SCT035 BKN120
Forecast period: 1400 to 1800 UTC 19 January 2019
Forecast type: FROM: standard forecast or significant change
Winds: from the NE (40 degrees) at 6 MPH (5 knots; 2.6 m/s)
Visibility: 6 or more miles 10+ km)
Ceiling: 12000 feet AGL
Clouds: scattered clouds at 3500 feet AGL
broken clouds at 12000 feet AGL
Weather: no significant weather forecast for this period
Text: FM191800 07006KT P6SM BKN035
Forecast period: 1800 to 2100 UTC 19 January 2019
Forecast type: FROM: standard forecast or significant change
Winds: from the ENE (70 degrees) at 7 MPH (6 knots; 3.1 m/s)
Visibility: 6 or more miles 10+ km)
Ceiling: 3500 feet AGL
Clouds: broken clouds at 3500 feet AGL
Weather: no significant weather forecast for this period
Text: FM192100 08007KT P6SM -SN SCT020 OVC040
Forecast period: 2100 to 2300 UTC 19 January 2019
Forecast type: FROM: standard forecast or significant change
Winds: from the E (80 degrees) at 8 MPH (7 knots; 3.6 m/s)
Visibility: 6 or more miles 10+ km)
Ceiling: 4000 feet AGL
Clouds: scattered clouds at 2000 feet AGL
overcast cloud deck at 4000 feet AGL
Weather: -SN  (light snow)
Text: FM192300 08008KT 1 1/2SM -SN BR OVC007
Forecast period: 2300 UTC 19 January 2019 to 0300 UTC 20 January 2019
Forecast type: FROM: standard forecast or significant change
Winds: from the E (80 degrees) at 9 MPH (8 knots; 4.1 m/s)
Visibility: 1.50 miles (2.41 km)
Ceiling: 700 feet AGL
Clouds: overcast cloud deck at 700 feet AGL
Weather: -SN BR  (light snow, mist)
Text: FM200300 07008KT 1/2SM SN FG OVC004
Forecast period: 0300 to 0800 UTC 20 January 2019
Forecast type: FROM: standard forecast or significant change
Winds: from the ENE (70 degrees) at 9 MPH (8 knots; 4.1 m/s)
Visibility: 0.50 miles (0.80 km)
Ceiling: 400 feet AGL
Clouds: overcast cloud deck at 400 feet AGL
Weather: SN FG  (moderate snow, fog)
Text: FM200800 04009KT 1SM PLSN BR OVC004
Forecast period: 0800 to 1000 UTC 20 January 2019
Forecast type: FROM: standard forecast or significant change
Winds: from the NE (40 degrees) at 10 MPH (9 knots; 4.6 m/s)
Visibility: 1.00 miles (1.61 km)
Ceiling: 400 feet AGL
Clouds: overcast cloud deck at 400 feet AGL
Weather: PL SN BR  (moderate ice pellets, moderate snow, mist)
Text: FM201000 03008KT 1SM FZRAPL BR OVC009
Forecast period: 1000 to 1300 UTC 20 January 2019
Forecast type: FROM: standard forecast or significant change
Winds: from the NNE (30 degrees) at 9 MPH (8 knots; 4.1 m/s)
Visibility: 1.00 miles (1.61 km)
Ceiling: 900 feet AGL
Clouds: overcast cloud deck at 900 feet AGL
Weather: FZRA PL BR  (freezing rain, moderate ice pellets, mist)
Text: FM201300 36012KT 1SM -FZRAPL BR OVC007
Forecast period: 1300 to 1600 UTC 20 January 2019
Forecast type: FROM: standard forecast or significant change
Winds: from the N (360 degrees) at 14 MPH (12 knots; 6.2 m/s)
Visibility: 1.00 miles (1.61 km)
Ceiling: 700 feet AGL
Clouds: overcast cloud deck at 700 feet AGL
Weather: -FZRA PL BR  (light freezing rain, moderate ice pellets, mist)
Text: FM201600 01011KT 3SM -FZRAPL OVC013 AMD NOT SKED
Forecast period: 1600 to 1800 UTC 20 January 2019
Forecast type: FROM: standard forecast or significant change
Winds: from the N (10 degrees) at 13 MPH (11 knots; 5.7 m/s)
Visibility: 3 miles (5 km)
Ceiling: 1300 feet AGL
Clouds: overcast cloud deck at 1300 feet AGL
Weather: -FZRA PL  (light freezing rain, moderate ice pellets)